aviador You're here:

KEWN Decoded Metar

NEW BERN in NC, USA
Report Time2018-01-21 05:54:00
UTC Time2018-01-21 06:42:14
Flight Rules vfr VFR
Wind230° at 06 kt
W.Decomp.*RWY 22: 5.7 kt HW 1.9 kt RCW
RWY 32: 0.8 kt HW 5.9 kt LCW
W.Rank230° ranks 7
Current wind is below 230° avg. (6.1)
Visibility9999 m
Phenomena:N/A
Clouds:N/A
Expected CloudBase > 3,200 ft AGL from Temp-Dew spread
CeilingNone
Temp06°C (ISA -9)
Dew Point-2°C (57% RH)
AAT1.6°C
QNH1023 hPa
Density Alt-1,339 ft
Elevation10 ft
Report Wrong Elevation
Raw Report
KEWN 210554Z AUTO 23006KT 10SM CLR 06/M02 A3021 RMK AO2 SLP229
T00561022 10083 20044 58002=

Extra information for KEWN:More info

Metar Taf Metar & Taf Last 4 Metars F.Rules Stats Wind Profile Meteogram Temp Stats Airport Information Weather charts Add Link Nearby VenuesMetar ALERT Operation Metar Decoded Social comments

AIRNAV info for KEWN